Time;durP1;ratioP1;P1;durP2;ratioP2;P2;SDS_P1;SDS_P2;PMS_P1;PMS_P2;Temp;Humidity;BMP_temperature;BMP_pressure;BME280_temperature;BME280_humidity;BME280_pressure;Samples;Min_cycle;Max_cycle;Signal;HPM_P1;HPM_P2
2020/12/10 00:01:01;;;;;;;42.27;20.90;;;;;;;;;;4361068;32;20155;-78
2020/12/10 00:03:26;;;;;;;42.83;20.47;;;;;;;;;;4361370;32;20581;-78
2020/12/10 00:05:52;;;;;;;39.67;20.07;;;;;;;;;;4361121;32;20225;-78
2020/12/10 00:08:20;;;;;;;40.10;20.03;;;;;;;;;;4361013;32;20147;-78
2020/12/10 00:10:45;;;;;;;42.10;20.43;;;;;;;;;;4360936;32;20568;-78
2020/12/10 00:13:11;;;;;;;38.00;20.80;;;;;;;;;;4361550;32;20170;-78
2020/12/10 00:15:39;;;;;;;41.47;21.00;;;;;;;;;;4360996;32;20158;-78
2020/12/10 00:18:05;;;;;;;38.90;19.60;;;;;;;;;;4361065;32;20158;-78
2020/12/10 00:20:30;;;;;;;39.87;20.80;;;;;;;;;;4360932;32;20186;-78
2020/12/10 00:22:55;;;;;;;38.93;19.47;;;;;;;;;;4361240;32;20546;-77
2020/12/10 00:25:21;;;;;;;38.97;21.17;;;;;;;;;;4361813;32;20201;-78
2020/12/10 00:27:46;;;;;;;41.23;18.57;;;;;;;;;;4361018;32;20200;-78
2020/12/10 00:30:11;;;;;;;41.80;21.33;;;;;;;;;;4374996;32;20147;-77
2020/12/10 00:32:37;;;;;;;40.63;19.73;;;;;;;;;;4361010;32;20201;-78
2020/12/10 00:35:09;;;;;;;40.23;19.77;;;;;;;;;;4361073;32;20221;-77
2020/12/10 00:37:35;;;;;;;44.77;21.33;;;;;;;;;;4360810;32;20526;-77
2020/12/10 00:40:01;;;;;;;36.20;19.03;;;;;;;;;;4360995;32;20532;-77
2020/12/10 00:42:26;;;;;;;43.07;21.17;;;;;;;;;;4374554;32;20580;-78
2020/12/10 00:44:51;;;;;;;41.53;20.00;;;;;;;;;;4361513;32;20154;-78
2020/12/10 00:47:20;;;;;;;35.50;18.73;;;;;;;;;;4363971;32;20158;-78
2020/12/10 00:49:46;;;;;;;39.27;19.63;;;;;;;;;;4364178;32;20151;-78
2020/12/10 00:52:12;;;;;;;40.33;21.87;;;;;;;;;;4363593;32;20154;-78
2020/12/10 00:54:37;;;;;;;38.17;18.63;;;;;;;;;;4363557;32;20193;-78
2020/12/10 00:57:02;;;;;;;38.87;18.33;;;;;;;;;;4363612;32;20532;-78
2020/12/10 00:59:28;;;;;;;33.67;17.40;;;;;;;;;;4363302;32;20209;-77
2020/12/10 01:01:55;;;;;;;34.33;17.97;;;;;;;;;;4363263;32;20155;-78
2020/12/10 01:04:21;;;;;;;36.20;18.83;;;;;;;;;;4363867;32;20225;-78
2020/12/10 01:06:46;;;;;;;39.57;19.17;;;;;;;;;;4363658;32;20158;-78
2020/12/10 01:09:11;;;;;;;34.90;17.60;;;;;;;;;;4363553;32;20151;-78
2020/12/10 01:11:46;;;;;;;36.87;18.33;;;;;;;;;;4377237;32;20151;-78
2020/12/10 01:14:12;;;;;;;34.77;18.40;;;;;;;;;;4363589;32;20154;-78
2020/12/10 01:16:37;;;;;;;34.70;17.50;;;;;;;;;;4363327;32;20664;-78
2020/12/10 01:19:03;;;;;;;32.47;17.33;;;;;;;;;;4363248;32;20205;-78
2020/12/10 01:21:32;;;;;;;32.40;17.33;;;;;;;;;;4363174;32;20173;-78
2020/12/10 01:23:58;;;;;;;38.73;17.37;;;;;;;;;;4376843;32;20127;-78
2020/12/10 01:26:24;;;;;;;27.80;15.70;;;;;;;;;;4363255;32;20647;-78
2020/12/10 01:28:50;;;;;;;29.83;16.70;;;;;;;;;;4363095;32;20191;-78
2020/12/10 01:31:15;;;;;;;31.07;16.37;;;;;;;;;;4363779;32;20159;-78
2020/12/10 01:33:40;;;;;;;26.20;15.43;;;;;;;;;;4363044;32;20159;-78
2020/12/10 01:36:06;;;;;;;30.03;15.80;;;;;;;;;;4362992;32;20151;-78
2020/12/10 01:38:31;;;;;;;28.67;14.23;;;;;;;;;;4363161;32;20175;-78
2020/12/10 01:40:57;;;;;;;29.20;15.20;;;;;;;;;;4362515;32;20574;-77
2020/12/10 01:43:22;;;;;;;28.30;14.27;;;;;;;;;;4363179;32;20182;-77
2020/12/10 01:45:50;;;;;;;31.23;15.57;;;;;;;;;;4363074;32;20221;-78
2020/12/10 01:48:18;;;;;;;28.93;14.70;;;;;;;;;;4362882;32;20147;-78
2020/12/10 01:50:46;;;;;;;25.33;14.70;;;;;;;;;;4363291;32;20151;-78
2020/12/10 01:53:12;;;;;;;29.50;15.30;;;;;;;;;;4363112;32;20185;-78
2020/12/10 01:55:37;;;;;;;26.93;15.03;;;;;;;;;;4362862;32;20569;-78
2020/12/10 01:58:02;;;;;;;26.20;15.17;;;;;;;;;;4363439;32;20535;-78
2020/12/10 02:00:28;;;;;;;27.30;13.70;;;;;;;;;;4362928;32;20502;-78
2020/12/10 02:02:56;;;;;;;29.10;14.47;;;;;;;;;;4362588;32;20190;-78
2020/12/10 02:05:22;;;;;;;29.50;14.50;;;;;;;;;;4362974;32;20229;-78
2020/12/10 02:07:47;;;;;;;28.70;14.67;;;;;;;;;;4362753;32;20224;-78
2020/12/10 02:10:13;;;;;;;28.37;14.37;;;;;;;;;;4363096;32;20213;-78
2020/12/10 02:12:39;;;;;;;23.93;13.63;;;;;;;;;;4362901;32;20559;-78
2020/12/10 02:15:04;;;;;;;30.93;15.17;;;;;;;;;;4362460;32;20169;-78
2020/12/10 02:17:30;;;;;;;27.60;14.40;;;;;;;;;;4362441;32;20181;-78
2020/12/10 02:19:55;;;;;;;27.00;14.63;;;;;;;;;;4362292;32;20249;-78
2020/12/10 02:22:21;;;;;;;24.80;13.93;;;;;;;;;;4362904;32;20155;-78
2020/12/10 02:24:48;;;;;;;27.13;13.83;;;;;;;;;;4362441;32;20588;-78
2020/12/10 02:27:14;;;;;;;24.53;13.27;;;;;;;;;;4363345;32;20200;-78
2020/12/10 02:29:41;;;;;;;30.20;14.20;;;;;;;;;;4362443;32;20592;-79
2020/12/10 02:32:07;;;;;;;29.97;13.90;;;;;;;;;;4370284;32;20138;-78
2020/12/10 02:34:34;;;;;;;29.60;15.13;;;;;;;;;;4362520;32;20194;-78
2020/12/10 02:37:00;;;;;;;26.90;13.70;;;;;;;;;;4362373;32;20159;-78
2020/12/10 02:39:27;;;;;;;27.90;14.20;;;;;;;;;;4362210;32;20202;-78
2020/12/10 02:41:53;;;;;;;27.43;14.23;;;;;;;;;;4362468;32;20201;-78
2020/12/10 02:44:20;;;;;;;27.10;13.47;;;;;;;;;;4362454;32;20159;-78
2020/12/10 02:46:49;;;;;;;25.07;13.30;;;;;;;;;;4362602;32;20151;-78
2020/12/10 02:49:14;;;;;;;29.83;15.33;;;;;;;;;;4361951;32;20204;-78
2020/12/10 02:51:46;;;;;;;26.30;13.70;;;;;;;;;;4362314;32;20237;-78
2020/12/10 02:54:11;;;;;;;26.40;14.17;;;;;;;;;;4362369;32;20162;-78
2020/12/10 02:56:40;;;;;;;24.60;13.40;;;;;;;;;;4376139;32;20580;-78
2020/12/10 02:59:05;;;;;;;27.30;14.43;;;;;;;;;;4356269;32;20147;-78
2020/12/10 03:01:35;;;;;;;30.60;14.83;;;;;;;;;;4375950;32;20158;-78
2020/12/10 03:04:05;;;;;;;25.40;12.17;;;;;;;;;;4361848;32;20162;-78
2020/12/10 03:06:33;;;;;;;24.03;12.43;;;;;;;;;;4362515;32;20158;-78
2020/12/10 03:09:04;;;;;;;25.70;14.33;;;;;;;;;;4360891;32;20488;-78
2020/12/10 03:11:30;;;;;;;22.83;12.50;;;;;;;;;;4361795;32;20184;-78
2020/12/10 03:13:55;;;;;;;26.80;13.67;;;;;;;;;;4361769;32;20482;-78
2020/12/10 03:16:23;;;;;;;23.90;12.40;;;;;;;;;;4362279;32;20564;-78
2020/12/10 03:18:49;;;;;;;22.87;12.20;;;;;;;;;;4362029;32;20167;-78
2020/12/10 03:21:17;;;;;;;24.87;13.07;;;;;;;;;;4361641;32;20182;-78
2020/12/10 03:23:43;;;;;;;23.23;11.73;;;;;;;;;;4375835;32;20143;-78
2020/12/10 03:26:08;;;;;;;26.20;12.73;;;;;;;;;;4361636;32;20710;-78
2020/12/10 03:28:55;;;;;;;22.20;11.53;;;;;;;;;;4375626;32;20610;-77
2020/12/10 03:31:26;;;;;;;24.20;12.07;;;;;;;;;;4361471;32;20154;-78
2020/12/10 03:33:51;;;;;;;22.27;11.50;;;;;;;;;;4360712;32;20291;-78
2020/12/10 03:36:20;;;;;;;21.67;11.77;;;;;;;;;;4361916;32;20163;-77
2020/12/10 03:38:45;;;;;;;22.07;11.40;;;;;;;;;;4375139;32;20166;-78
2020/12/10 03:41:13;;;;;;;22.43;11.47;;;;;;;;;;4362523;32;20154;-78
2020/12/10 03:43:38;;;;;;;21.03;12.00;;;;;;;;;;4361347;32;20181;-78
2020/12/10 03:46:06;;;;;;;28.17;13.30;;;;;;;;;;4361291;32;20163;-78
2020/12/10 03:48:31;;;;;;;26.87;13.23;;;;;;;;;;4361206;32;20171;-78
2020/12/10 03:50:57;;;;;;;24.80;12.20;;;;;;;;;;4361388;32;20223;-78
2020/12/10 03:53:27;;;;;;;25.90;13.10;;;;;;;;;;4361483;32;20180;-79
2020/12/10 03:55:56;;;;;;;23.20;13.30;;;;;;;;;;4361233;32;20194;-78
2020/12/10 03:58:23;;;;;;;24.97;13.03;;;;;;;;;;4361664;32;20162;-79
2020/12/10 04:00:49;;;;;;;20.03;11.80;;;;;;;;;;4361322;32;20162;-79
2020/12/10 04:03:20;;;;;;;23.63;13.90;;;;;;;;;;4361466;32;20184;-78
2020/12/10 04:05:45;;;;;;;24.53;12.67;;;;;;;;;;4361182;32;20162;-78
2020/12/10 04:08:10;;;;;;;24.73;13.60;;;;;;;;;;4361409;32;20209;-78
2020/12/10 04:10:39;;;;;;;26.47;13.80;;;;;;;;;;4361073;32;20180;-79
2020/12/10 04:13:04;;;;;;;25.07;13.67;;;;;;;;;;4361172;32;20218;-78
2020/12/10 04:15:32;;;;;;;22.43;12.50;;;;;;;;;;4361578;32;20181;-78
2020/12/10 04:17:57;;;;;;;27.00;13.97;;;;;;;;;;4360661;32;20159;-79
2020/12/10 04:20:22;;;;;;;27.20;13.47;;;;;;;;;;4363024;32;20208;-79
2020/12/10 04:22:50;;;;;;;23.07;12.13;;;;;;;;;;4364535;32;20185;-78
2020/12/10 04:25:18;;;;;;;23.43;12.80;;;;;;;;;;4363961;32;20155;-78
2020/12/10 04:27:46;;;;;;;25.97;12.40;;;;;;;;;;4363976;32;20198;-78
2020/12/10 04:30:20;;;;;;;23.97;12.43;;;;;;;;;;4364146;32;20155;-78
2020/12/10 04:32:48;;;;;;;23.20;12.50;;;;;;;;;;4364819;32;20150;-78
2020/12/10 04:35:14;;;;;;;26.40;13.63;;;;;;;;;;4363842;32;20217;-78
2020/12/10 04:37:41;;;;;;;31.20;13.80;;;;;;;;;;4364328;32;20499;-78
2020/12/10 04:40:06;;;;;;;33.10;16.20;;;;;;;;;;4363447;32;20189;-78
2020/12/10 04:42:32;;;;;;;31.03;14.37;;;;;;;;;;4364185;32;20442;-78
2020/12/10 04:44:57;;;;;;;28.23;14.70;;;;;;;;;;4364141;32;20151;-79
2020/12/10 04:47:23;;;;;;;29.07;14.50;;;;;;;;;;4363778;32;20268;-78
2020/12/10 04:49:52;;;;;;;33.20;14.97;;;;;;;;;;4364042;32;20166;-78
2020/12/10 04:52:18;;;;;;;34.93;15.60;;;;;;;;;;4363606;32;20155;-78
2020/12/10 04:54:43;;;;;;;34.00;16.63;;;;;;;;;;4363677;32;20253;-79
2020/12/10 04:57:19;;;;;;;31.50;15.00;;;;;;;;;;4363492;32;20155;-78
2020/12/10 04:59:46;;;;;;;29.27;15.47;;;;;;;;;;4363692;32;20589;-78
2020/12/10 05:02:12;;;;;;;25.97;13.53;;;;;;;;;;4363441;32;20166;-78
2020/12/10 05:04:38;;;;;;;34.23;15.90;;;;;;;;;;4363730;32;20253;-78
2020/12/10 05:07:03;;;;;;;31.17;14.83;;;;;;;;;;4363366;32;20190;-78
2020/12/10 05:09:28;;;;;;;34.00;16.43;;;;;;;;;;4363355;32;20162;-79
2020/12/10 05:11:54;;;;;;;29.77;15.40;;;;;;;;;;4363846;32;20190;-79
2020/12/10 05:14:20;;;;;;;29.50;15.27;;;;;;;;;;4363876;32;20206;-79
2020/12/10 05:17:05;;;;;;;36.47;17.07;;;;;;;;;;4363245;32;20159;-79
2020/12/10 05:19:31;;;;;;;34.37;15.13;;;;;;;;;;4363381;32;20233;-79
2020/12/10 05:22:06;;;;;;;30.37;15.43;;;;;;;;;;4363129;32;20178;-79
2020/12/10 05:24:32;;;;;;;34.97;17.10;;;;;;;;;;4363183;32;20592;-78
2020/12/10 05:27:17;;;;;;;32.50;15.53;;;;;;;;;;4363171;32;20159;-78
2020/12/10 05:29:43;;;;;;;30.73;14.77;;;;;;;;;;4362896;32;20610;-79
2020/12/10 05:32:28;;;;;;;32.20;15.77;;;;;;;;;;4362408;32;20158;-78
2020/12/10 05:34:53;;;;;;;32.70;16.33;;;;;;;;;;4363157;32;20206;-78
2020/12/10 05:37:33;;;;;;;33.97;15.33;;;;;;;;;;4362943;32;20162;-78
2020/12/10 05:40:00;;;;;;;33.60;15.33;;;;;;;;;;4363330;32;20178;-78
2020/12/10 05:42:36;;;;;;;32.30;17.33;;;;;;;;;;4363003;32;20209;-78
2020/12/10 05:45:09;;;;;;;31.13;15.33;;;;;;;;;;4362927;32;20200;-78
2020/12/10 05:47:40;;;;;;;35.93;15.63;;;;;;;;;;4363671;32;20186;-78
2020/12/10 05:50:08;;;;;;;32.83;15.93;;;;;;;;;;4363063;32;20208;-78
2020/12/10 05:52:38;;;;;;;33.13;16.43;;;;;;;;;;4362586;32;20209;-78
2020/12/10 05:55:06;;;;;;;35.87;15.90;;;;;;;;;;4362775;32;20201;-78
2020/12/10 05:57:32;;;;;;;25.93;14.73;;;;;;;;;;4363640;32;20154;-78
2020/12/10 06:00:03;;;;;;;31.47;15.83;;;;;;;;;;4376244;32;20139;-78
2020/12/10 06:02:31;;;;;;;33.33;15.47;;;;;;;;;;4362803;32;20237;-78
2020/12/10 06:05:00;;;;;;;30.93;16.47;;;;;;;;;;4362839;32;20220;-78
2020/12/10 06:07:26;;;;;;;28.23;15.10;;;;;;;;;;4362498;32;20163;-78
2020/12/10 06:09:54;;;;;;;34.33;15.37;;;;;;;;;;4363040;32;20563;-78
2020/12/10 06:12:23;;;;;;;31.47;15.10;;;;;;;;;;4362960;32;20150;-79
2020/12/10 06:14:52;;;;;;;32.73;16.70;;;;;;;;;;4362630;32;20186;-78
2020/12/10 06:17:17;;;;;;;35.33;16.43;;;;;;;;;;4362383;32;20204;-78
2020/12/10 06:19:45;;;;;;;36.43;16.47;;;;;;;;;;4362456;32;20162;-79
2020/12/10 06:22:30;;;;;;;33.00;16.77;;;;;;;;;;4362517;32;20261;-78
2020/12/10 06:24:57;;;;;;;31.60;16.13;;;;;;;;;;4362270;32;20600;-78
2020/12/10 06:27:23;;;;;;;33.23;15.40;;;;;;;;;;4375760;32;20266;-78
2020/12/10 06:29:51;;;;;;;34.73;15.87;;;;;;;;;;4362262;32;20185;-78
2020/12/10 06:32:20;;;;;;;29.53;15.60;;;;;;;;;;4376036;32;20165;-77
2020/12/10 06:34:51;;;;;;;30.40;15.17;;;;;;;;;;4362599;32;20174;-77
2020/12/10 06:37:25;;;;;;;34.83;16.20;;;;;;;;;;4362131;32;20170;-77
2020/12/10 06:39:57;;;;;;;33.13;15.53;;;;;;;;;;4362160;32;20519;-77
2020/12/10 06:42:38;;;;;;;;;;;;;;;;;;;;;
2020/12/10 06:45:22;;;;;;;33.57;16.10;;;;;;;;;;4376023;32;20174;-77
2020/12/10 06:47:47;;;;;;;29.97;14.97;;;;;;;;;;4376072;32;20118;-78
2020/12/10 06:50:30;;;;;;;33.80;15.57;;;;;;;;;;4352713;33;20516;-78
2020/12/10 06:53:10;;;;;;;29.90;15.73;;;;;;;;;;4346965;33;20154;-78
2020/12/10 06:55:55;;;;;;;31.20;15.63;;;;;;;;;;4360769;32;20460;-78
2020/12/10 06:58:20;;;;;;;36.80;15.77;;;;;;;;;;4346858;33;20178;-78
2020/12/10 07:00:51;;;;;;;35.00;16.10;;;;;;;;;;4347226;33;20219;-78
2020/12/10 07:03:21;;;;;;;36.80;16.27;;;;;;;;;;4361162;32;20168;-79
2020/12/10 07:05:46;;;;;;;39.87;20.53;;;;;;;;;;4346728;33;20573;-79
2020/12/10 07:08:14;;;;;;;35.23;16.83;;;;;;;;;;4346657;33;20162;-79
2020/12/10 07:10:40;;;;;;;35.43;17.20;;;;;;;;;;4346607;33;20496;-79
2020/12/10 07:13:06;;;;;;;33.43;17.07;;;;;;;;;;4360500;32;20131;-78
2020/12/10 07:15:31;;;;;;;39.03;16.27;;;;;;;;;;4358995;33;20608;-79
2020/12/10 07:18:02;;;;;;;34.53;16.90;;;;;;;;;;4346581;33;20151;-79
2020/12/10 07:20:36;;;;;;;30.50;15.37;;;;;;;;;;4346897;33;20163;-78
2020/12/10 07:23:04;;;;;;;37.77;16.30;;;;;;;;;;4346460;33;20154;-78
2020/12/10 07:25:30;;;;;;;34.30;15.83;;;;;;;;;;4346579;33;20167;-78
2020/12/10 07:27:55;;;;;;;37.57;17.57;;;;;;;;;;4346319;33;20185;-78
2020/12/10 07:30:23;;;;;;;33.90;16.73;;;;;;;;;;4346566;33;20155;-78
2020/12/10 07:32:51;;;;;;;35.47;17.20;;;;;;;;;;4346943;33;20174;-78
2020/12/10 07:35:25;;;;;;;33.83;16.43;;;;;;;;;;4346750;33;20163;-78
2020/12/10 07:37:50;;;;;;;31.40;14.83;;;;;;;;;;4347284;33;20181;-78
2020/12/10 07:40:18;;;;;;;29.47;15.13;;;;;;;;;;4358497;32;20568;-79
2020/12/10 07:42:43;;;;;;;32.17;15.07;;;;;;;;;;4361972;32;20190;-78
2020/12/10 07:45:18;;;;;;;32.10;15.40;;;;;;;;;;4361159;32;20631;-78
2020/12/10 07:47:57;;;;;;;31.37;15.80;;;;;;;;;;4361278;32;20662;-77
2020/12/10 07:50:24;;;;;;;36.00;16.10;;;;;;;;;;4361489;32;20150;-76
2020/12/10 07:52:50;;;;;;;31.37;14.50;;;;;;;;;;4361439;32;20326;-78
2020/12/10 07:55:16;;;;;;;31.87;14.83;;;;;;;;;;4360849;32;20204;-78
2020/12/10 07:57:45;;;;;;;31.97;14.53;;;;;;;;;;4360562;32;20221;-78
2020/12/10 08:00:18;;;;;;;30.03;14.60;;;;;;;;;;4360933;32;20158;-78
2020/12/10 08:02:47;;;;;;;32.90;15.47;;;;;;;;;;4361634;32;20154;-78
2020/12/10 08:05:19;;;;;;;28.47;14.50;;;;;;;;;;4374886;32;20521;-78
2020/12/10 08:07:51;;;;;;;28.43;14.27;;;;;;;;;;4361510;32;20155;-78
2020/12/10 08:10:23;;;;;;;33.00;15.17;;;;;;;;;;4361198;32;20200;-78
2020/12/10 08:13:07;;;;;;;30.57;15.17;;;;;;;;;;4361491;32;20177;-78
2020/12/10 08:15:33;;;;;;;29.37;15.00;;;;;;;;;;4361545;32;20185;-78
2020/12/10 08:18:02;;;;;;;33.20;14.97;;;;;;;;;;4361336;32;20150;-78
2020/12/10 08:20:57;;;;;;;36.83;15.97;;;;;;;;;;4360820;32;20170;-78
2020/12/10 08:23:22;;;;;;;29.60;14.83;;;;;;;;;;4341243;32;20155;-78
2020/12/10 08:25:48;;;;;;;29.37;14.90;;;;;;;;;;4361233;32;20217;-78
2020/12/10 08:28:22;;;;;;;36.00;15.90;;;;;;;;;;4361121;32;20190;-78
2020/12/10 08:31:02;;;;;;;33.33;15.37;;;;;;;;;;4361364;32;20147;-78
2020/12/10 08:33:37;;;;;;;30.67;14.90;;;;;;;;;;4360898;32;20159;-78
2020/12/10 08:36:03;;;;;;;30.30;15.43;;;;;;;;;;4360816;32;20146;-78
2020/12/10 08:38:28;;;;;;;25.27;14.00;;;;;;;;;;4361068;32;20523;-78
2020/12/10 08:40:54;;;;;;;26.93;14.33;;;;;;;;;;4361244;32;20202;-78
2020/12/10 08:43:20;;;;;;;29.87;14.97;;;;;;;;;;4361224;32;20487;-78
2020/12/10 08:45:46;;;;;;;28.43;14.90;;;;;;;;;;4360552;32;20249;-78
2020/12/10 08:48:12;;;;;;;28.87;14.30;;;;;;;;;;4360967;32;20151;-78
2020/12/10 08:50:51;;;;;;;25.93;14.50;;;;;;;;;;4360646;32;20159;-78
2020/12/10 08:53:16;;;;;;;31.77;14.30;;;;;;;;;;4374603;32;20122;-78
2020/12/10 08:55:51;;;;;;;26.07;14.03;;;;;;;;;;4360672;32;20170;-77
2020/12/10 08:58:20;;;;;;;30.77;13.97;;;;;;;;;;4360546;32;20159;-79
2020/12/10 09:00:52;;;;;;;27.00;13.80;;;;;;;;;;4360549;32;20491;-78
2020/12/10 09:03:18;;;;;;;25.50;13.67;;;;;;;;;;4361641;32;20165;-79
2020/12/10 09:05:43;;;;;;;29.03;14.17;;;;;;;;;;4374505;32;20162;-78
2020/12/10 09:08:09;;;;;;;26.67;13.97;;;;;;;;;;4363541;32;20256;-77
2020/12/10 09:10:34;;;;;;;30.60;14.07;;;;;;;;;;4363235;32;20212;-78
2020/12/10 09:13:00;;;;;;;25.23;13.33;;;;;;;;;;4377170;32;20160;-76
2020/12/10 09:15:26;;;;;;;25.83;13.70;;;;;;;;;;4364077;32;20155;-77
2020/12/10 09:17:51;;;;;;;26.20;13.23;;;;;;;;;;4363373;32;20146;-76
2020/12/10 09:20:17;;;;;;;23.53;12.50;;;;;;;;;;4363889;32;20184;-77
2020/12/10 09:22:43;;;;;;;23.33;13.23;;;;;;;;;;4362990;32;20181;-77
2020/12/10 09:25:08;;;;;;;24.77;12.73;;;;;;;;;;4376563;32;20169;-77
2020/12/10 09:27:34;;;;;;;23.77;13.13;;;;;;;;;;4363147;32;20194;-77
2020/12/10 09:29:59;;;;;;;22.63;12.83;;;;;;;;;;4363507;32;20556;-78
2020/12/10 09:32:25;;;;;;;24.43;12.03;;;;;;;;;;4362977;32;20181;-78
2020/12/10 09:34:51;;;;;;;27.33;12.83;;;;;;;;;;4363063;32;20167;-78
2020/12/10 09:37:16;;;;;;;27.10;12.27;;;;;;;;;;4363835;32;20147;-78
2020/12/10 09:39:47;;;;;;;23.07;12.30;;;;;;;;;;4362905;32;20238;-78
2020/12/10 09:42:27;;;;;;;24.50;12.87;;;;;;;;;;4363076;32;20154;-78
2020/12/10 09:44:53;;;;;;;25.53;13.03;;;;;;;;;;4363202;32;20177;-79
2020/12/10 09:47:18;;;;;;;24.43;12.50;;;;;;;;;;4363379;32;20167;-79
2020/12/10 09:49:51;;;;;;;27.07;13.27;;;;;;;;;;4363692;32;20173;-78
2020/12/10 09:52:25;;;;;;;29.33;15.40;;;;;;;;;;4363134;32;20172;-79
2020/12/10 09:55:09;;;;;;;24.03;12.07;;;;;;;;;;4362936;32;20476;-79
2020/12/10 09:57:34;;;;;;;23.07;12.27;;;;;;;;;;4363258;32;20186;-79
2020/12/10 10:00:01;;;;;;;25.93;12.57;;;;;;;;;;4363011;32;20540;-79
2020/12/10 10:02:27;;;;;;;24.87;12.07;;;;;;;;;;4362652;32;20176;-78
2020/12/10 10:04:55;;;;;;;25.90;11.30;;;;;;;;;;4363078;32;20237;-79
2020/12/10 10:07:22;;;;;;;19.27;11.40;;;;;;;;;;4362631;32;20155;-79
2020/12/10 10:09:48;;;;;;;23.10;12.30;;;;;;;;;;4362196;32;20197;-79
2020/12/10 10:12:21;;;;;;;22.57;11.90;;;;;;;;;;4362886;32;20194;-79
2020/12/10 10:14:48;;;;;;;24.43;12.57;;;;;;;;;;4362386;32;20147;-79
2020/12/10 10:17:16;;;;;;;22.00;11.77;;;;;;;;;;4362520;32;20255;-78
2020/12/10 10:19:41;;;;;;;26.93;14.83;;;;;;;;;;4362568;32;20174;-78
2020/12/10 10:22:10;;;;;;;25.20;12.67;;;;;;;;;;4362244;32;20598;-78
2020/12/10 10:24:35;;;;;;;30.30;13.77;;;;;;;;;;4362135;32;20147;-78
2020/12/10 10:27:01;;;;;;;29.53;13.90;;;;;;;;;;4362775;32;20512;-78
2020/12/10 10:29:26;;;;;;;31.97;17.47;;;;;;;;;;4362466;32;20232;-78
2020/12/10 10:31:54;;;;;;;32.60;18.30;;;;;;;;;;4362218;32;20200;-78
2020/12/10 10:34:20;;;;;;;32.90;14.80;;;;;;;;;;4362281;32;20277;-78
2020/12/10 10:36:48;;;;;;;24.83;14.63;;;;;;;;;;4376132;32;20131;-78
2020/12/10 10:39:13;;;;;;;22.70;13.20;;;;;;;;;;4362179;32;20253;-78
2020/12/10 10:41:42;;;;;;;26.30;14.13;;;;;;;;;;4362547;32;20178;-78
2020/12/10 10:44:13;;;;;;;23.33;13.57;;;;;;;;;;4361824;32;20462;-78
2020/12/10 10:46:39;;;;;;;25.23;14.10;;;;;;;;;;4361676;32;20489;-78
2020/12/10 10:49:15;;;;;;;26.10;13.70;;;;;;;;;;4362359;32;20173;-78
2020/12/10 10:51:44;;;;;;;22.70;12.50;;;;;;;;;;4362032;32;20154;-78
2020/12/10 10:54:09;;;;;;;22.23;12.27;;;;;;;;;;4362186;32;20646;-78
2020/12/10 10:56:34;;;;;;;32.50;14.07;;;;;;;;;;4362150;32;20182;-80
2020/12/10 10:59:00;;;;;;;22.27;12.90;;;;;;;;;;4361791;32;20604;-78
2020/12/10 11:01:31;;;;;;;26.20;13.57;;;;;;;;;;4361628;32;20201;-79
2020/12/10 11:03:56;;;;;;;27.70;13.40;;;;;;;;;;4362302;32;20170;-78
2020/12/10 11:06:22;;;;;;;27.03;12.77;;;;;;;;;;4362081;32;20167;-78
2020/12/10 11:08:47;;;;;;;26.57;12.80;;;;;;;;;;4361937;32;20216;-78
2020/12/10 11:11:26;;;;;;;25.90;12.60;;;;;;;;;;4361554;32;20170;-78
2020/12/10 11:13:52;;;;;;;24.00;13.07;;;;;;;;;;4362004;32;20569;-79
2020/12/10 11:16:23;;;;;;;22.27;12.67;;;;;;;;;;4361588;32;20146;-78
2020/12/10 11:18:49;;;;;;;29.60;12.07;;;;;;;;;;4361393;32;20150;-79
2020/12/10 11:21:14;;;;;;;25.77;12.63;;;;;;;;;;4361435;32;20155;-80
2020/12/10 11:23:42;;;;;;;25.00;12.77;;;;;;;;;;4361514;32;20261;-79
2020/12/10 11:26:07;;;;;;;24.53;12.83;;;;;;;;;;4355511;32;20159;-79
2020/12/10 11:28:32;;;;;;;23.10;12.73;;;;;;;;;;4375001;32;20185;-79
2020/12/10 11:30:58;;;;;;;19.97;11.77;;;;;;;;;;4361194;32;20489;-79
2020/12/10 11:33:23;;;;;;;29.40;12.70;;;;;;;;;;4361544;32;20210;-79
2020/12/10 11:35:49;;;;;;;23.37;12.30;;;;;;;;;;4362258;32;20175;-78
2020/12/10 11:38:14;;;;;;;23.00;12.53;;;;;;;;;;4361621;32;20173;-79
2020/12/10 11:40:45;;;;;;;25.30;12.37;;;;;;;;;;4361045;32;20478;-78
2020/12/10 11:43:28;;;;;;;26.23;11.60;;;;;;;;;;4355926;32;20177;-79
2020/12/10 11:45:54;;;;;;;24.07;11.97;;;;;;;;;;4361172;32;20190;-79
2020/12/10 11:48:28;;;;;;;20.23;10.90;;;;;;;;;;4361445;32;20195;-79
2020/12/10 11:50:59;;;;;;;24.43;11.43;;;;;;;;;;4361392;32;20610;-79
2020/12/10 11:53:31;;;;;;;22.17;11.37;;;;;;;;;;4361733;32;20479;-79
2020/12/10 11:55:57;;;;;;;20.13;10.90;;;;;;;;;;4361892;32;20165;-78
2020/12/10 11:58:29;;;;;;;20.80;11.23;;;;;;;;;;4360881;32;20151;-79
2020/12/10 12:01:00;;;;;;;17.43;10.50;;;;;;;;;;4375263;32;20130;-79
2020/12/10 12:03:25;;;;;;;17.60;9.83;;;;;;;;;;4361426;32;20169;-78
2020/12/10 12:06:01;;;;;;;19.40;10.93;;;;;;;;;;4360935;32;20154;-79
2020/12/10 12:08:30;;;;;;;21.15;10.98;;;;;;;;;;4361501;32;20180;-79
2020/12/10 12:10:55;;;;;;;17.25;10.80;;;;;;;;;;4361070;32;20150;-79
2020/12/10 12:13:21;;;;;;;16.33;10.65;;;;;;;;;;4361488;32;20452;-79
2020/12/10 12:15:47;;;;;;;21.87;10.20;;;;;;;;;;4361162;32;20190;-79
2020/12/10 12:18:16;;;;;;;21.77;11.75;;;;;;;;;;4361429;32;20227;-79
2020/12/10 12:20:45;;;;;;;17.65;10.75;;;;;;;;;;4360496;32;20154;-78
2020/12/10 12:23:11;;;;;;;26.10;11.55;;;;;;;;;;4361247;32;20150;-79
2020/12/10 12:25:36;;;;;;;19.62;11.15;;;;;;;;;;4360890;32;20209;-79
2020/12/10 12:28:02;;;;;;;17.92;9.85;;;;;;;;;;4361052;32;20281;-78
2020/12/10 12:30:27;;;;;;;19.08;10.85;;;;;;;;;;4360847;32;20554;-78
2020/12/10 12:32:53;;;;;;;19.50;9.85;;;;;;;;;;4374985;32;20504;-78
2020/12/10 12:35:18;;;;;;;17.83;11.12;;;;;;;;;;4361004;32;20155;-78
2020/12/10 12:37:44;;;;;;;27.33;11.65;;;;;;;;;;4361715;32;20269;-78
2020/12/10 12:40:10;;;;;;;18.12;10.00;;;;;;;;;;4361379;32;20170;-77
2020/12/10 12:42:35;;;;;;;21.35;10.55;;;;;;;;;;4363516;32;20289;-78
2020/12/10 12:45:00;;;;;;;18.52;10.32;;;;;;;;;;4364570;32;20467;-78
2020/12/10 12:47:26;;;;;;;20.85;10.18;;;;;;;;;;4363726;32;20237;-78
2020/12/10 12:49:51;;;;;;;21.98;11.50;;;;;;;;;;4363315;32;20566;-78
2020/12/10 12:52:16;;;;;;;26.92;11.93;;;;;;;;;;4363666;32;20213;-78
2020/12/10 12:54:45;;;;;;;17.37;10.18;;;;;;;;;;4363397;32;20182;-78
2020/12/10 12:57:10;;;;;;;19.77;10.68;;;;;;;;;;4363551;32;20173;-78
2020/12/10 12:59:35;;;;;;;16.10;10.13;;;;;;;;;;4363408;32;20245;-78
2020/12/10 13:02:01;;;;;;;17.58;10.18;;;;;;;;;;4363937;32;20220;-78
2020/12/10 13:04:28;;;;;;;34.28;12.15;;;;;;;;;;4363377;32;20588;-78
2020/12/10 13:06:54;;;;;;;21.23;11.20;;;;;;;;;;4363254;32;20185;-78
2020/12/10 13:09:19;;;;;;;17.05;10.55;;;;;;;;;;4363770;32;20166;-78
2020/12/10 13:11:45;;;;;;;21.37;10.35;;;;;;;;;;4363768;32;20221;-78
2020/12/10 13:14:11;;;;;;;22.60;10.75;;;;;;;;;;4363361;32;20159;-78
2020/12/10 13:16:40;;;;;;;27.58;11.45;;;;;;;;;;4363747;32;20147;-78
2020/12/10 13:19:11;;;;;;;18.77;11.20;;;;;;;;;;4363777;32;20181;-78
2020/12/10 13:21:37;;;;;;;17.27;10.80;;;;;;;;;;4363330;32;20181;-78
2020/12/10 13:24:02;;;;;;;23.40;11.88;;;;;;;;;;4363026;32;20487;-78
2020/12/10 13:26:28;;;;;;;21.58;13.13;;;;;;;;;;4363276;32;20167;-78
2020/12/10 13:29:05;;;;;;;20.73;12.30;;;;;;;;;;4363015;32;20190;-78
2020/12/10 13:31:31;;;;;;;24.08;12.50;;;;;;;;;;4362867;32;20173;-78
2020/12/10 13:34:13;;;;;;;19.75;12.00;;;;;;;;;;4363177;32;20154;-78
2020/12/10 13:36:43;;;;;;;19.80;12.00;;;;;;;;;;4364009;32;20146;-78
2020/12/10 13:39:08;;;;;;;24.83;12.20;;;;;;;;;;4363000;32;20178;-78
2020/12/10 13:41:34;;;;;;;19.85;11.88;;;;;;;;;;4362783;32;20268;-78
2020/12/10 13:43:59;;;;;;;21.62;13.32;;;;;;;;;;4363028;32;20185;-77
2020/12/10 13:46:25;;;;;;;21.83;12.93;;;;;;;;;;4363767;32;20177;-78
2020/12/10 13:48:56;;;;;;;20.65;14.27;;;;;;;;;;4375563;32;20042;-78
2020/12/10 13:51:22;;;;;;;22.52;12.57;;;;;;;;;;4363145;32;20151;-77
2020/12/10 13:53:50;;;;;;;24.60;13.68;;;;;;;;;;4376175;32;20177;-78
2020/12/10 13:56:21;;;;;;;20.15;12.60;;;;;;;;;;4362634;32;20280;-78
2020/12/10 13:58:52;;;;;;;20.33;12.32;;;;;;;;;;4362958;32;20162;-76
2020/12/10 14:01:21;;;;;;;21.37;11.32;;;;;;;;;;4363066;32;20174;-78
2020/12/10 14:03:54;;;;;;;22.83;11.93;;;;;;;;;;4361853;32;20162;-79
2020/12/10 14:06:20;;;;;;;23.23;11.68;;;;;;;;;;4363519;32;20155;-80
2020/12/10 14:08:46;;;;;;;18.40;11.75;;;;;;;;;;4362390;32;20146;-79
2020/12/10 14:11:11;;;;;;;22.08;11.70;;;;;;;;;;4362742;32;20170;-78
2020/12/10 14:13:37;;;;;;;21.10;11.95;;;;;;;;;;4363126;32;20155;-78
2020/12/10 14:16:06;;;;;;;28.77;13.03;;;;;;;;;;4362827;32;20151;-78
2020/12/10 14:18:31;;;;;;;25.25;12.98;;;;;;;;;;4362934;32;20155;-78
2020/12/10 14:20:57;;;;;;;30.40;13.03;;;;;;;;;;4376040;32;20528;-78
2020/12/10 14:23:23;;;;;;;21.53;13.03;;;;;;;;;;4362285;32;20595;-77